sensor_id;sensor_type;location;lat;lon;timestamp;pressure;altitude;pressure_sealevel;temperature;humidity
65718;BME280;52445;52.466;-1.016;2022-12-26T00:00:29;98961.19;;;7.89;82.80
65718;BME280;52445;52.466;-1.016;2022-12-26T00:02:56;98964.66;;;7.89;83.05
65718;BME280;52445;52.466;-1.016;2022-12-26T00:05:23;98965.53;;;7.87;83.06
65718;BME280;52445;52.466;-1.016;2022-12-26T00:07:49;98964.69;;;7.84;83.31
65718;BME280;52445;52.466;-1.016;2022-12-26T00:10:16;98960.38;;;7.85;82.94
65718;BME280;52445;52.466;-1.016;2022-12-26T00:12:43;98960.38;;;7.88;83.48
65718;BME280;52445;52.466;-1.016;2022-12-26T00:15:10;98949.16;;;7.91;83.27
65718;BME280;52445;52.466;-1.016;2022-12-26T00:17:36;98952.56;;;7.91;82.12
65718;BME280;52445;52.466;-1.016;2022-12-26T00:20:04;98952.56;;;7.91;82.98
65718;BME280;52445;52.466;-1.016;2022-12-26T00:22:30;98944.84;;;7.91;82.21
65718;BME280;52445;52.466;-1.016;2022-12-26T00:24:57;98944.03;;;7.89;82.57
65718;BME280;52445;52.466;-1.016;2022-12-26T00:27:24;98932.84;;;7.87;83.29
65718;BME280;52445;52.466;-1.016;2022-12-26T00:29:50;98935.38;;;7.93;83.05
65718;BME280;52445;52.466;-1.016;2022-12-26T00:32:17;98931.94;;;7.93;83.25
65718;BME280;52445;52.466;-1.016;2022-12-26T00:34:43;98931.94;;;7.94;82.53
65718;BME280;52445;52.466;-1.016;2022-12-26T00:37:10;98927.59;;;8.00;82.53
65718;BME280;52445;52.466;-1.016;2022-12-26T00:39:36;98924.16;;;8.01;81.96
65718;BME280;52445;52.466;-1.016;2022-12-26T00:42:03;98929.28;;;8.04;82.44
65718;BME280;52445;52.466;-1.016;2022-12-26T00:44:30;98919.75;;;8.07;82.88
65718;BME280;52445;52.466;-1.016;2022-12-26T00:46:56;98917.16;;;8.12;82.83
65718;BME280;52445;52.466;-1.016;2022-12-26T00:49:23;98915.34;;;8.17;82.44
65718;BME280;52445;52.466;-1.016;2022-12-26T00:51:50;98924.78;;;8.18;81.92
65718;BME280;52445;52.466;-1.016;2022-12-26T00:54:17;98929.16;;;8.13;82.48
65718;BME280;52445;52.466;-1.016;2022-12-26T00:56:44;98923.03;;;8.23;81.90
65718;BME280;52445;52.466;-1.016;2022-12-26T00:59:11;98925.59;;;8.27;82.71
65718;BME280;52445;52.466;-1.016;2022-12-26T01:01:37;98920.38;;;8.30;82.60
65718;BME280;52445;52.466;-1.016;2022-12-26T01:04:04;98912.63;;;8.31;82.21
65718;BME280;52445;52.466;-1.016;2022-12-26T01:06:31;98916.03;;;8.33;82.23
65718;BME280;52445;52.466;-1.016;2022-12-26T01:08:58;98915.94;;;8.40;81.80
65718;BME280;52445;52.466;-1.016;2022-12-26T01:11:25;98910.75;;;8.44;81.90
65718;BME280;52445;52.466;-1.016;2022-12-26T01:16:45;98902.13;;;8.45;81.74
65718;BME280;52445;52.466;-1.016;2022-12-26T01:19:12;98901.28;;;8.46;81.51
65718;BME280;52445;52.466;-1.016;2022-12-26T01:21:39;98912.44;;;8.47;81.91
65718;BME280;52445;52.466;-1.016;2022-12-26T01:24:08;98916.66;;;8.53;81.52
65718;BME280;52445;52.466;-1.016;2022-12-26T01:26:35;98909.81;;;8.52;81.81
65718;BME280;52445;52.466;-1.016;2022-12-26T01:29:02;98916.69;;;8.51;81.86
65718;BME280;52445;52.466;-1.016;2022-12-26T01:31:28;98908.91;;;8.53;81.34
65718;BME280;52445;52.466;-1.016;2022-12-26T01:33:55;98897.81;;;8.47;81.26
65718;BME280;52445;52.466;-1.016;2022-12-26T01:36:21;98917.56;;;8.48;81.31
65718;BME280;52445;52.466;-1.016;2022-12-26T01:38:48;98925.31;;;8.48;81.50
65718;BME280;52445;52.466;-1.016;2022-12-26T01:41:15;98915.81;;;8.52;81.98
65718;BME280;52445;52.466;-1.016;2022-12-26T01:49:34;98927.00;;;8.49;81.41
65718;BME280;52445;52.466;-1.016;2022-12-26T01:52:06;98937.25;;;8.62;81.03
65718;BME280;52445;52.466;-1.016;2022-12-26T01:54:36;98941.50;;;8.65;81.50
65718;BME280;52445;52.466;-1.016;2022-12-26T01:57:15;98942.47;;;8.56;81.14
65718;BME280;52445;52.466;-1.016;2022-12-26T01:59:44;98948.41;;;8.63;81.62
65718;BME280;52445;52.466;-1.016;2022-12-26T02:02:11;98948.47;;;8.59;81.93
65718;BME280;52445;52.466;-1.016;2022-12-26T02:04:44;98953.66;;;8.58;81.62
65718;BME280;52445;52.466;-1.016;2022-12-26T02:07:34;98973.41;;;8.59;81.76
65718;BME280;52445;52.466;-1.016;2022-12-26T02:10:06;98973.41;;;8.59;81.14
65718;BME280;52445;52.466;-1.016;2022-12-26T02:12:35;98973.44;;;8.56;80.78
65718;BME280;52445;52.466;-1.016;2022-12-26T02:15:09;98975.19;;;8.51;81.12
65718;BME280;52445;52.466;-1.016;2022-12-26T02:17:38;98991.53;;;8.49;81.37
65718;BME280;52445;52.466;-1.016;2022-12-26T02:20:26;98992.53;;;8.39;81.46
65718;BME280;52445;52.466;-1.016;2022-12-26T02:34:23;99033.78;;;8.42;80.89
65718;BME280;52445;52.466;-1.016;2022-12-26T02:39:55;99083.03;;;8.16;79.28
65718;BME280;52445;52.466;-1.016;2022-12-26T02:51:15;99133.53;;;6.91;76.08
65718;BME280;52445;52.466;-1.016;2022-12-26T02:54:27;99155.03;;;6.75;76.21
65718;BME280;52445;52.466;-1.016;2022-12-26T02:57:19;99160.19;;;6.36;75.56
65718;BME280;52445;52.466;-1.016;2022-12-26T03:00:12;99181.59;;;6.25;74.98
65718;BME280;52445;52.466;-1.016;2022-12-26T03:05:44;99204.63;;;5.74;73.55
65718;BME280;52445;52.466;-1.016;2022-12-26T03:08:56;99201.94;;;5.49;73.52
65718;BME280;52445;52.466;-1.016;2022-12-26T03:11:49;99206.16;;;5.31;73.74
65718;BME280;52445;52.466;-1.016;2022-12-26T03:14:59;99227.59;;;5.43;73.75
65718;BME280;52445;52.466;-1.016;2022-12-26T03:17:31;99228.31;;;5.23;73.84
65718;BME280;52445;52.466;-1.016;2022-12-26T03:20:07;99230.00;;;5.14;74.24
65718;BME280;52445;52.466;-1.016;2022-12-26T03:27:55;99258.16;;;5.04;73.99
65718;BME280;52445;52.466;-1.016;2022-12-26T03:30:21;99269.25;;;4.98;73.39
65718;BME280;52445;52.466;-1.016;2022-12-26T03:33:08;99275.22;;;4.95;73.60
65718;BME280;52445;52.466;-1.016;2022-12-26T03:35:55;99281.16;;;4.89;73.04
65718;BME280;52445;52.466;-1.016;2022-12-26T03:38:32;99294.75;;;4.79;73.58
65718;BME280;52445;52.466;-1.016;2022-12-26T03:41:14;99295.53;;;4.67;73.21
65718;BME280;52445;52.466;-1.016;2022-12-26T03:54:45;99357.69;;;4.43;73.17
65718;BME280;52445;52.466;-1.016;2022-12-26T03:57:44;99366.31;;;4.51;73.07
65718;BME280;52445;52.466;-1.016;2022-12-26T04:00:35;99375.69;;;4.47;73.01
65718;BME280;52445;52.466;-1.016;2022-12-26T04:03:24;99385.06;;;4.47;72.96
65718;BME280;52445;52.466;-1.016;2022-12-26T04:06:18;99388.44;;;4.43;73.24
65718;BME280;52445;52.466;-1.016;2022-12-26T04:09:11;99394.34;;;4.35;72.84
65718;BME280;52445;52.466;-1.016;2022-12-26T04:11:59;99398.56;;;4.33;73.07
65718;BME280;52445;52.466;-1.016;2022-12-26T04:14:58;99410.56;;;4.34;73.37
65718;BME280;52445;52.466;-1.016;2022-12-26T04:18:09;99420.75;;;4.28;72.68
65718;BME280;52445;52.466;-1.016;2022-12-26T04:21:20;99431.84;;;4.27;72.98
65718;BME280;52445;52.466;-1.016;2022-12-26T04:24:18;99438.56;;;4.17;72.98
65718;BME280;52445;52.466;-1.016;2022-12-26T04:27:09;99458.19;;;4.17;73.05
65718;BME280;52445;52.466;-1.016;2022-12-26T04:29:57;99461.66;;;4.19;73.34
65718;BME280;52445;52.466;-1.016;2022-12-26T04:32:47;99473.50;;;4.12;73.54
65718;BME280;52445;52.466;-1.016;2022-12-26T04:35:44;99483.75;;;4.10;73.64
65718;BME280;52445;52.466;-1.016;2022-12-26T04:38:40;99492.19;;;4.03;73.29
65718;BME280;52445;52.466;-1.016;2022-12-26T04:41:29;99498.09;;;3.99;73.56
65718;BME280;52445;52.466;-1.016;2022-12-26T04:44:17;99509.16;;;3.95;73.37
65718;BME280;52445;52.466;-1.016;2022-12-26T04:46:46;99507.44;;;3.95;73.78
65718;BME280;52445;52.466;-1.016;2022-12-26T04:49:15;99515.94;;;3.93;73.52
65718;BME280;52445;52.466;-1.016;2022-12-26T04:52:08;99524.44;;;3.90;73.97
65718;BME280;52445;52.466;-1.016;2022-12-26T04:54:35;99523.50;;;3.86;73.89
65718;BME280;52445;52.466;-1.016;2022-12-26T04:57:02;99524.34;;;3.85;73.99
65718;BME280;52445;52.466;-1.016;2022-12-26T04:59:29;99520.88;;;3.80;74.19
65718;BME280;52445;52.466;-1.016;2022-12-26T05:01:55;99522.47;;;3.75;74.09
65718;BME280;52445;52.466;-1.016;2022-12-26T05:04:42;99527.59;;;3.73;74.16
65718;BME280;52445;52.466;-1.016;2022-12-26T05:07:32;99532.63;;;3.69;74.39
65718;BME280;52445;52.466;-1.016;2022-12-26T05:10:23;99532.63;;;3.69;74.56
65718;BME280;52445;52.466;-1.016;2022-12-26T05:12:51;99537.69;;;3.66;74.75
65718;BME280;52445;52.466;-1.016;2022-12-26T05:15:19;99542.72;;;3.61;75.10
65718;BME280;52445;52.466;-1.016;2022-12-26T05:17:45;99555.50;;;3.58;74.96
65718;BME280;52445;52.466;-1.016;2022-12-26T05:20:32;99550.31;;;3.55;75.06
65718;BME280;52445;52.466;-1.016;2022-12-26T05:23:21;99559.63;;;3.51;74.78
65718;BME280;52445;52.466;-1.016;2022-12-26T05:26:14;99566.38;;;3.46;75.56
65718;BME280;52445;52.466;-1.016;2022-12-26T05:29:02;99577.47;;;3.45;75.00
65718;BME280;52445;52.466;-1.016;2022-12-26T05:31:29;99578.25;;;3.41;75.27
65718;BME280;52445;52.466;-1.016;2022-12-26T05:34:02;99580.78;;;3.39;75.71
65718;BME280;52445;52.466;-1.016;2022-12-26T05:36:39;99595.22;;;3.37;75.87
65718;BME280;52445;52.466;-1.016;2022-12-26T05:39:08;99607.97;;;3.34;75.70
65718;BME280;52445;52.466;-1.016;2022-12-26T05:41:35;99615.66;;;3.36;76.17
65718;BME280;52445;52.466;-1.016;2022-12-26T05:44:02;99622.47;;;3.33;75.92
65718;BME280;52445;52.466;-1.016;2022-12-26T05:46:29;99628.41;;;3.32;76.28
65718;BME280;52445;52.466;-1.016;2022-12-26T05:48:56;99642.88;;;3.30;76.04
65718;BME280;52445;52.466;-1.016;2022-12-26T05:51:23;99644.53;;;3.28;76.53
65718;BME280;52445;52.466;-1.016;2022-12-26T05:53:50;99653.97;;;3.29;76.45
65718;BME280;52445;52.466;-1.016;2022-12-26T05:56:18;99666.75;;;3.29;75.83
65718;BME280;52445;52.466;-1.016;2022-12-26T05:58:45;99672.72;;;3.30;76.52
65718;BME280;52445;52.466;-1.016;2022-12-26T06:01:15;99675.25;;;3.28;75.89
65718;BME280;52445;52.466;-1.016;2022-12-26T06:03:45;99675.25;;;3.27;75.85
65718;BME280;52445;52.466;-1.016;2022-12-26T06:06:13;99670.09;;;3.25;76.20
65718;BME280;52445;52.466;-1.016;2022-12-26T06:08:41;99675.22;;;3.25;76.02
65718;BME280;52445;52.466;-1.016;2022-12-26T06:11:10;99680.25;;;3.22;76.75
65718;BME280;52445;52.466;-1.016;2022-12-26T06:13:39;99672.50;;;3.19;76.93
65718;BME280;52445;52.466;-1.016;2022-12-26T06:16:08;99676.72;;;3.17;76.09
65718;BME280;52445;52.466;-1.016;2022-12-26T06:18:35;99666.44;;;3.14;76.62
65718;BME280;52445;52.466;-1.016;2022-12-26T06:21:03;99673.22;;;3.12;76.21
65718;BME280;52445;52.466;-1.016;2022-12-26T06:23:30;99676.56;;;3.09;76.61
65718;BME280;52445;52.466;-1.016;2022-12-26T06:25:57;99686.78;;;3.07;77.08
65718;BME280;52445;52.466;-1.016;2022-12-26T06:28:24;99695.28;;;3.06;76.50
65718;BME280;52445;52.466;-1.016;2022-12-26T06:30:51;99698.69;;;3.05;77.31
65718;BME280;52445;52.466;-1.016;2022-12-26T06:33:18;99705.44;;;3.03;76.63
65718;BME280;52445;52.466;-1.016;2022-12-26T06:35:45;99710.56;;;3.03;77.11
65718;BME280;52445;52.466;-1.016;2022-12-26T06:38:12;99713.97;;;3.02;76.57
65718;BME280;52445;52.466;-1.016;2022-12-26T06:40:39;99721.59;;;3.01;77.25
65718;BME280;52445;52.466;-1.016;2022-12-26T06:43:07;99721.59;;;3.01;77.28
65718;BME280;52445;52.466;-1.016;2022-12-26T06:45:34;99727.53;;;2.98;76.85
65718;BME280;52445;52.466;-1.016;2022-12-26T06:48:01;99740.31;;;2.98;77.44
65718;BME280;52445;52.466;-1.016;2022-12-26T06:50:28;99740.28;;;2.97;76.51
65718;BME280;52445;52.466;-1.016;2022-12-26T06:52:54;99736.00;;;2.97;77.57
65718;BME280;52445;52.466;-1.016;2022-12-26T06:55:21;99747.91;;;2.95;76.99
65718;BME280;52445;52.466;-1.016;2022-12-26T06:57:50;99753.03;;;2.95;77.51
65718;BME280;52445;52.466;-1.016;2022-12-26T07:00:17;99743.59;;;2.92;77.66
65718;BME280;52445;52.466;-1.016;2022-12-26T07:02:48;99744.44;;;2.93;76.87
65718;BME280;52445;52.466;-1.016;2022-12-26T07:05:15;99752.94;;;2.92;77.27
65718;BME280;52445;52.466;-1.016;2022-12-26T07:07:41;99750.34;;;2.90;77.62
65718;BME280;52445;52.466;-1.016;2022-12-26T07:10:08;99749.50;;;2.90;76.83
65718;BME280;52445;52.466;-1.016;2022-12-26T07:12:35;99757.97;;;2.89;77.53
65718;BME280;52445;52.466;-1.016;2022-12-26T07:15:01;99762.25;;;2.88;77.03
65718;BME280;52445;52.466;-1.016;2022-12-26T07:17:28;99771.63;;;2.88;77.02
65718;BME280;52445;52.466;-1.016;2022-12-26T07:19:55;99778.41;;;2.87;77.69
65718;BME280;52445;52.466;-1.016;2022-12-26T07:22:21;99781.75;;;2.85;77.37
65718;BME280;52445;52.466;-1.016;2022-12-26T07:24:48;99794.56;;;2.85;77.33
65718;BME280;52445;52.466;-1.016;2022-12-26T07:27:14;99800.41;;;2.80;77.95
65718;BME280;52445;52.466;-1.016;2022-12-26T07:29:41;99803.84;;;2.81;77.34
65718;BME280;52445;52.466;-1.016;2022-12-26T07:32:07;99809.81;;;2.81;77.35
65718;BME280;52445;52.466;-1.016;2022-12-26T07:34:34;99813.13;;;2.77;77.22
65718;BME280;52445;52.466;-1.016;2022-12-26T07:37:01;99824.28;;;2.79;77.42
65718;BME280;52445;52.466;-1.016;2022-12-26T07:39:27;99819.06;;;2.76;77.13
65718;BME280;52445;52.466;-1.016;2022-12-26T07:41:54;99824.19;;;2.76;78.13
65718;BME280;52445;52.466;-1.016;2022-12-26T07:44:25;99813.06;;;2.74;77.11
65718;BME280;52445;52.466;-1.016;2022-12-26T07:46:52;99829.22;;;2.73;77.00
65718;BME280;52445;52.466;-1.016;2022-12-26T07:49:18;99829.22;;;2.73;76.96
65718;BME280;52445;52.466;-1.016;2022-12-26T07:51:45;99829.13;;;2.70;77.28
65718;BME280;52445;52.466;-1.016;2022-12-26T07:54:12;99839.38;;;2.70;77.85
65718;BME280;52445;52.466;-1.016;2022-12-26T07:56:39;99838.53;;;2.69;77.35
65718;BME280;52445;52.466;-1.016;2022-12-26T07:59:06;99840.16;;;2.67;77.82
65718;BME280;52445;52.466;-1.016;2022-12-26T08:01:33;99849.53;;;2.67;77.45
65718;BME280;52445;52.466;-1.016;2022-12-26T08:04:00;99851.19;;;2.65;77.78
65718;BME280;52445;52.466;-1.016;2022-12-26T08:06:27;99857.97;;;2.63;77.23
65718;BME280;52445;52.466;-1.016;2022-12-26T08:08:53;99852.84;;;2.63;77.85
65718;BME280;52445;52.466;-1.016;2022-12-26T08:11:21;99869.81;;;2.61;77.59
65718;BME280;52445;52.466;-1.016;2022-12-26T08:13:50;99869.81;;;2.61;77.57
65718;BME280;52445;52.466;-1.016;2022-12-26T08:16:17;99878.34;;;2.60;77.17
65718;BME280;52445;52.466;-1.016;2022-12-26T08:18:44;99886.81;;;2.59;76.73
65718;BME280;52445;52.466;-1.016;2022-12-26T08:21:11;99886.81;;;2.59;76.40
65718;BME280;52445;52.466;-1.016;2022-12-26T08:23:38;99893.69;;;2.60;76.92
65718;BME280;52445;52.466;-1.016;2022-12-26T08:26:07;99900.59;;;2.64;77.74
65718;BME280;52445;52.466;-1.016;2022-12-26T08:28:34;99903.31;;;2.70;77.26
65718;BME280;52445;52.466;-1.016;2022-12-26T08:31:09;99909.59;;;2.81;77.03
65718;BME280;52445;52.466;-1.016;2022-12-26T08:33:37;99914.16;;;2.93;76.65
65718;BME280;52445;52.466;-1.016;2022-12-26T08:36:05;99922.19;;;3.07;76.41
65718;BME280;52445;52.466;-1.016;2022-12-26T08:38:32;99918.47;;;3.30;76.75
65718;BME280;52445;52.466;-1.016;2022-12-26T08:40:59;99912.47;;;3.63;76.62
65718;BME280;52445;52.466;-1.016;2022-12-26T08:43:26;99923.47;;;3.97;76.55
65718;BME280;52445;52.466;-1.016;2022-12-26T08:46:12;99918.38;;;4.41;75.89
65718;BME280;52445;52.466;-1.016;2022-12-26T08:48:40;99925.06;;;4.75;74.78
65718;BME280;52445;52.466;-1.016;2022-12-26T08:51:12;99935.09;;;5.09;74.19
65718;BME280;52445;52.466;-1.016;2022-12-26T08:53:39;99935.63;;;5.40;74.61
65718;BME280;52445;52.466;-1.016;2022-12-26T08:56:10;99943.81;;;5.72;73.85
65718;BME280;52445;52.466;-1.016;2022-12-26T08:58:37;99958.19;;;6.16;73.65
65718;BME280;52445;52.466;-1.016;2022-12-26T09:01:06;99965.75;;;6.70;73.40
65718;BME280;52445;52.466;-1.016;2022-12-26T09:03:33;99970.59;;;7.24;73.26
65718;BME280;52445;52.466;-1.016;2022-12-26T09:06:00;99967.50;;;7.61;71.25
65718;BME280;52445;52.466;-1.016;2022-12-26T09:08:32;99973.78;;;7.99;70.45
65718;BME280;52445;52.466;-1.016;2022-12-26T09:11:01;99978.25;;;8.30;71.08
65718;BME280;52445;52.466;-1.016;2022-12-26T09:13:29;99980.16;;;8.65;70.46
65718;BME280;52445;52.466;-1.016;2022-12-26T09:16:03;99982.03;;;9.07;69.14
65718;BME280;52445;52.466;-1.016;2022-12-26T09:18:30;99984.69;;;9.58;69.14
65718;BME280;52445;52.466;-1.016;2022-12-26T09:21:00;99983.78;;;10.08;67.52
65718;BME280;52445;52.466;-1.016;2022-12-26T09:23:28;99975.03;;;10.59;67.26
65718;BME280;52445;52.466;-1.016;2022-12-26T09:25:55;99980.94;;;10.92;66.28
65718;BME280;52445;52.466;-1.016;2022-12-26T09:28:21;99988.59;;;11.14;66.06
65718;BME280;52445;52.466;-1.016;2022-12-26T09:30:48;99988.34;;;11.50;66.24
65718;BME280;52445;52.466;-1.016;2022-12-26T09:33:14;99992.47;;;11.76;64.94
65718;BME280;52445;52.466;-1.016;2022-12-26T09:35:41;99998.25;;;12.11;65.27
65718;BME280;52445;52.466;-1.016;2022-12-26T09:38:08;100005.56;;;12.56;64.78
65718;BME280;52445;52.466;-1.016;2022-12-26T09:46:31;100022.03;;;13.82;60.72
65718;BME280;52445;52.466;-1.016;2022-12-26T09:51:52;100045.78;;;14.63;60.45
65718;BME280;52445;52.466;-1.016;2022-12-26T09:54:39;100056.34;;;15.01;59.98
65718;BME280;52445;52.466;-1.016;2022-12-26T09:57:13;100059.06;;;15.36;59.30
65718;BME280;52445;52.466;-1.016;2022-12-26T09:59:49;100066.94;;;15.74;58.77
65718;BME280;52445;52.466;-1.016;2022-12-26T10:02:20;100059.25;;;16.04;57.28
65718;BME280;52445;52.466;-1.016;2022-12-26T10:04:47;100075.94;;;16.33;57.40
65718;BME280;52445;52.466;-1.016;2022-12-26T10:07:38;100077.06;;;16.57;56.42
65718;BME280;52445;52.466;-1.016;2022-12-26T10:10:11;100081.50;;;16.86;56.42
65718;BME280;52445;52.466;-1.016;2022-12-26T10:15:56;100070.13;;;17.18;53.70
65718;BME280;52445;52.466;-1.016;2022-12-26T10:18:39;100073.28;;;17.30;52.91
65718;BME280;52445;52.466;-1.016;2022-12-26T10:23:51;100085.75;;;17.21;50.74
65718;BME280;52445;52.466;-1.016;2022-12-26T10:29:01;100082.00;;;16.99;47.76
65718;BME280;52445;52.466;-1.016;2022-12-26T10:34:34;100087.91;;;17.07;48.72
65718;BME280;52445;52.466;-1.016;2022-12-26T10:37:12;100088.81;;;17.06;48.79
65718;BME280;52445;52.466;-1.016;2022-12-26T10:45:13;100085.72;;;16.26;47.31
65718;BME280;52445;52.466;-1.016;2022-12-26T10:47:43;100100.81;;;15.77;48.17
65718;BME280;52445;52.466;-1.016;2022-12-26T10:50:18;100091.28;;;14.94;48.51
65718;BME280;52445;52.466;-1.016;2022-12-26T10:52:52;100099.28;;;14.35;50.35
65718;BME280;52445;52.466;-1.016;2022-12-26T10:55:25;100091.41;;;13.86;50.99
65718;BME280;52445;52.466;-1.016;2022-12-26T10:58:04;100094.69;;;13.36;51.75
65718;BME280;52445;52.466;-1.016;2022-12-26T11:00:34;100100.31;;;13.02;52.04
65718;BME280;52445;52.466;-1.016;2022-12-26T11:03:04;100104.00;;;12.84;52.37
65718;BME280;52445;52.466;-1.016;2022-12-26T11:05:34;100091.38;;;12.48;52.52
65718;BME280;52445;52.466;-1.016;2022-12-26T11:11:06;100099.78;;;11.65;54.50
65718;BME280;52445;52.466;-1.016;2022-12-26T11:13:37;100099.97;;;11.32;54.67
65718;BME280;52445;52.466;-1.016;2022-12-26T11:16:06;100097.53;;;10.98;54.96
65718;BME280;52445;52.466;-1.016;2022-12-26T11:24:15;100101.09;;;10.44;56.31
65718;BME280;52445;52.466;-1.016;2022-12-26T11:26:42;100099.34;;;10.40;57.10
65718;BME280;52445;52.466;-1.016;2022-12-26T11:29:14;100098.53;;;10.21;57.00
65718;BME280;52445;52.466;-1.016;2022-12-26T11:31:53;100105.41;;;10.08;57.25
65718;BME280;52445;52.466;-1.016;2022-12-26T11:34:29;100119.22;;;10.05;57.94
65718;BME280;52445;52.466;-1.016;2022-12-26T11:37:00;100122.69;;;10.16;58.45
65718;BME280;52445;52.466;-1.016;2022-12-26T11:39:30;100115.75;;;10.39;58.41
65718;BME280;52445;52.466;-1.016;2022-12-26T11:41:58;100115.81;;;10.45;58.15
65718;BME280;52445;52.466;-1.016;2022-12-26T11:44:34;100115.78;;;10.51;57.73
65718;BME280;52445;52.466;-1.016;2022-12-26T11:47:09;100110.59;;;10.40;57.06
65718;BME280;52445;52.466;-1.016;2022-12-26T11:55:34;100129.59;;;10.25;58.13
65718;BME280;52445;52.466;-1.016;2022-12-26T12:01:04;100119.22;;;10.00;58.17
65718;BME280;52445;52.466;-1.016;2022-12-26T12:03:47;100120.06;;;9.81;58.31
65718;BME280;52445;52.466;-1.016;2022-12-26T12:20:34;100118.84;;;8.79;60.43
65718;BME280;52445;52.466;-1.016;2022-12-26T12:23:19;100117.88;;;8.64;60.64
65718;BME280;52445;52.466;-1.016;2022-12-26T12:25:59;100111.75;;;8.48;60.59
65718;BME280;52445;52.466;-1.016;2022-12-26T12:37:10;100114.84;;;8.05;61.47
65718;BME280;52445;52.466;-1.016;2022-12-26T12:45:33;100106.88;;;7.83;63.15
65718;BME280;52445;52.466;-1.016;2022-12-26T13:01:34;100105.75;;;7.53;63.36
65718;BME280;52445;52.466;-1.016;2022-12-26T13:09:32;100123.16;;;7.74;62.55
65718;BME280;52445;52.466;-1.016;2022-12-26T13:12:05;100127.09;;;7.42;63.06
65718;BME280;52445;52.466;-1.016;2022-12-26T13:14:38;100123.59;;;7.34;63.97
65718;BME280;52445;52.466;-1.016;2022-12-26T13:17:15;100121.75;;;7.25;64.39
65718;BME280;52445;52.466;-1.016;2022-12-26T13:20:05;100113.00;;;7.12;63.28
65718;BME280;52445;52.466;-1.016;2022-12-26T13:22:42;100111.28;;;7.11;64.03
65718;BME280;52445;52.466;-1.016;2022-12-26T13:25:42;100106.03;;;7.05;64.49
65718;BME280;52445;52.466;-1.016;2022-12-26T13:28:16;100107.75;;;7.03;64.38
65718;BME280;52445;52.466;-1.016;2022-12-26T13:30:51;100100.84;;;6.99;64.20
65718;BME280;52445;52.466;-1.016;2022-12-26T13:33:19;100106.75;;;6.91;65.26
65718;BME280;52445;52.466;-1.016;2022-12-26T13:41:34;100122.84;;;6.78;64.41
65718;BME280;52445;52.466;-1.016;2022-12-26T13:46:58;100115.94;;;6.74;64.62
65718;BME280;52445;52.466;-1.016;2022-12-26T13:49:33;100122.72;;;6.68;64.98
65718;BME280;52445;52.466;-1.016;2022-12-26T14:00:22;100120.50;;;6.93;64.74
65718;BME280;52445;52.466;-1.016;2022-12-26T14:13:53;100115.47;;;6.42;66.41
65718;BME280;52445;52.466;-1.016;2022-12-26T14:22:17;100117.59;;;6.68;65.83
65718;BME280;52445;52.466;-1.016;2022-12-26T14:28:22;100123.84;;;6.29;66.98
65718;BME280;52445;52.466;-1.016;2022-12-26T14:33:32;100134.09;;;6.26;66.51
65718;BME280;52445;52.466;-1.016;2022-12-26T14:36:16;100125.44;;;6.21;67.58
65718;BME280;52445;52.466;-1.016;2022-12-26T14:38:51;100131.38;;;6.18;67.41
65718;BME280;52445;52.466;-1.016;2022-12-26T14:41:19;100131.34;;;6.15;67.17
65718;BME280;52445;52.466;-1.016;2022-12-26T14:47:00;100143.16;;;6.03;66.79
65718;BME280;52445;52.466;-1.016;2022-12-26T14:52:30;100154.19;;;5.98;66.68
65718;BME280;52445;52.466;-1.016;2022-12-26T14:54:58;100151.56;;;5.96;67.72
65718;BME280;52445;52.466;-1.016;2022-12-26T15:05:37;100167.63;;;5.84;68.05
65718;BME280;52445;52.466;-1.016;2022-12-26T15:11:10;100176.03;;;5.74;67.89
65718;BME280;52445;52.466;-1.016;2022-12-26T15:25:19;100186.94;;;5.63;68.22
65718;BME280;52445;52.466;-1.016;2022-12-26T15:31:08;100198.84;;;5.60;68.14
65718;BME280;52445;52.466;-1.016;2022-12-26T15:33:39;100210.81;;;5.58;68.45
65718;BME280;52445;52.466;-1.016;2022-12-26T15:41:44;100217.41;;;5.45;69.02
65718;BME280;52445;52.466;-1.016;2022-12-26T15:44:19;100219.91;;;5.42;69.28
65718;BME280;52445;52.466;-1.016;2022-12-26T16:01:09;100217.78;;;5.22;68.79
65718;BME280;52445;52.466;-1.016;2022-12-26T16:11:37;100216.50;;;5.03;69.72
65718;BME280;52445;52.466;-1.016;2022-12-26T16:14:13;100223.22;;;4.97;69.32
65718;BME280;52445;52.466;-1.016;2022-12-26T16:16:50;100226.53;;;4.93;69.25
65718;BME280;52445;52.466;-1.016;2022-12-26T16:19:21;100223.09;;;4.91;69.57
65718;BME280;52445;52.466;-1.016;2022-12-26T16:21:52;100224.63;;;4.83;70.58
65718;BME280;52445;52.466;-1.016;2022-12-26T16:24:40;100236.56;;;4.82;70.43
65718;BME280;52445;52.466;-1.016;2022-12-26T16:27:14;100238.16;;;4.77;69.87
65718;BME280;52445;52.466;-1.016;2022-12-26T16:29:48;100244.09;;;4.76;70.43
65718;BME280;52445;52.466;-1.016;2022-12-26T16:32:21;100243.19;;;4.72;70.66
65718;BME280;52445;52.466;-1.016;2022-12-26T16:34:49;100249.97;;;4.70;70.21
65718;BME280;52445;52.466;-1.016;2022-12-26T16:37:19;100255.06;;;4.69;70.97
65718;BME280;52445;52.466;-1.016;2022-12-26T16:45:34;100264.72;;;4.79;70.91
65718;BME280;52445;52.466;-1.016;2022-12-26T16:48:04;100269.72;;;4.73;70.79
65718;BME280;52445;52.466;-1.016;2022-12-26T16:50:33;100266.16;;;4.68;71.63
65718;BME280;52445;52.466;-1.016;2022-12-26T16:53:11;100258.34;;;4.63;72.08
65718;BME280;52445;52.466;-1.016;2022-12-26T16:58:23;100266.81;;;4.59;71.69
65718;BME280;52445;52.466;-1.016;2022-12-26T17:06:23;100276.03;;;4.52;71.78
65718;BME280;52445;52.466;-1.016;2022-12-26T17:08:52;100273.38;;;4.47;72.18
65718;BME280;52445;52.466;-1.016;2022-12-26T17:11:30;100281.00;;;4.46;71.64
65718;BME280;52445;52.466;-1.016;2022-12-26T17:13:59;100275.88;;;4.46;72.02
65718;BME280;52445;52.466;-1.016;2022-12-26T17:16:28;100270.66;;;4.43;72.05
65718;BME280;52445;52.466;-1.016;2022-12-26T17:19:08;100275.72;;;4.40;72.34
65718;BME280;52445;52.466;-1.016;2022-12-26T17:21:35;100279.13;;;4.39;71.87
65718;BME280;52445;52.466;-1.016;2022-12-26T17:26:39;100277.63;;;4.82;71.02
65718;BME280;52445;52.466;-1.016;2022-12-26T17:29:34;100278.44;;;4.46;72.23
65718;BME280;52445;52.466;-1.016;2022-12-26T17:32:06;100281.72;;;4.40;72.29
65718;BME280;52445;52.466;-1.016;2022-12-26T17:34:36;100287.56;;;4.34;72.22
65718;BME280;52445;52.466;-1.016;2022-12-26T17:37:03;100283.97;;;4.29;72.57
65718;BME280;52445;52.466;-1.016;2022-12-26T17:39:51;100288.16;;;4.26;72.41
65718;BME280;52445;52.466;-1.016;2022-12-26T17:42:22;100285.31;;;4.15;72.90